首页
METAR-TAF:

METAR-TAF

机场 :

石油平台

J6-a, 荷兰

纬度: 53-49-27N, 经度: 2-56-43E, 海拔: 34米

当前天气观测

该预报发布于35分钟前的07:25 UTC
风速11节,风向西北,在西转西北之间变化
温度 8°C
湿度 93%
气压 1035 hPa
能見度: 8000

METAR: EHJA 220725Z AUTO 31011KT 290V350 8000 BKN008/// OVC009/// 08/07 Q1035

时间: 09:00 (08:00 UTC)


TAF: 丢失

超过4000个机场的气象观测和天气预报(METAR&TAF报告)。

可查询的气象台以黄色和红色小点在地图上表示。

将鼠标移到小点上方,可查看气象台名称。

然后点击查看天气观测和预报。

如需切换地图:点击带黑十字的绿色按钮放大地图;点击带横线的绿色按钮缩小地图;或者点击绿色箭头查看邻近地区的地图。


METAR-TAF: